Sommer S — WDG3830 — position and weather

sailwx.info

Track history (hours):
 
Tides and Currents Weather Stations Pressure Air Temp Water Temp Dewpoint Dewpoint Depression Visibility Wind Speed Wind Dir Waves Ship Positions

Sommer S

More information available from US FCC via Universal Licensing System and Coast Guard Vessel Documentation Center.

Last reported at 2014-Jul-31 23:33 UTC. Time now 2014-Jul-31 23:43 UTC.
Position N 46°07' W 122°58'.

Length 25 m.

Type: Tug. MMSI: 367530080.

Date/timePositionNaut miles runAvg speedWind from/ knotsBaromVisibWave heightAir tempDewpointWater temp
2014-Jul-31 23:33N 46°07' W 122°58'2 0.8
2014-Jul-31 21:28N 46°05' W 122°56'0 0.0
2014-Jul-31 20:31N 46°05' W 122°56'0 0.0
2014-Jul-31 19:31N 46°05' W 122°56'0 0.0
2014-Jul-31 18:30N 46°05' W 122°56'0 0.0
2014-Jul-31 17:33N 46°05' W 122°56'0 0.0
2014-Jul-31 16:33N 46°05' W 122°56'0 0.0
2014-Jul-31 15:33N 46°05' W 122°56'0 0.0
2014-Jul-31 14:18N 46°05' W 122°56'0 0.0
2014-Jul-31 13:32N 46°05' W 122°56'0 0.0
2014-Jul-31 12:33N 46°05' W 122°56'0 0.0
2014-Jul-31 11:33N 46°05' W 122°56'0 0.0
2014-Jul-31 10:33N 46°05' W 122°56'0 0.0
2014-Jul-31 09:33N 46°05' W 122°56'0 0.0
2014-Jul-31 08:33N 46°05' W 122°56'5 5.1
2014-Jul-31 07:33N 46°09' W 123°02'6 5.4
2014-Jul-31 06:28N 46°11' W 123°09'6 5.3
2014-Jul-31 05:24N 46°09' W 123°17'6 5.1
2014-Jul-31 04:08N 46°11' W 123°25'3 4.5
2014-Jul-31 03:33N 46°13' W 123°25'5 5.2
2014-Jul-31 02:33N 46°16' W 123°32'6 6.5
2014-Jul-31 01:33N 46°15' W 123°41'7 7.1
2014-Jul-31 00:33N 46°12' W 123°50'1 0.9
2014-Jul-30 23:33N 46°11' W 123°52'0 0.0
2014-Jul-30 22:33N 46°11' W 123°52'0 0.4
2014-Jul-30 21:33N 46°12' W 123°51'6 5.6
2014-Jul-30 20:33N 46°14' W 123°44'8 7.6
2014-Jul-30 19:33N 46°15' W 123°33'7 7.0
2014-Jul-30 18:33N 46°11' W 123°26'10 8.9
2014-Jul-30 17:23N 46°11' W 123°11'8 9.4
2014-Jul-30 16:33N 46°08' W 123°00'4 3.9
2014-Jul-30 15:32N 46°05' W 122°56'0 0.0
2014-Jul-30 14:33N 46°05' W 122°56'0 0.0
2014-Jul-30 13:33N 46°05' W 122°56'0 0.0
2014-Jul-30 12:33N 46°05' W 122°56'0 0.0
2014-Jul-30 11:32N 46°05' W 122°56'0 0.0
2014-Jul-30 10:33N 46°05' W 122°56'0 0.0
2014-Jul-30 09:33N 46°05' W 122°56'0 0.0
2014-Jul-30 08:33N 46°05' W 122°56'0 0.0
2014-Jul-30 07:33N 46°05' W 122°56'0 0.0
2014-Jul-30 06:31N 46°05' W 122°56'1 0.5
2014-Jul-30 05:33N 46°06' W 122°56'1 0.9
2014-Jul-30 04:33N 46°06' W 122°58'1 1.3
2014-Jul-30 03:33N 46°06' W 122°56'1111.5
2014-Jul-30 02:33N 45°56' W 122°48'1211.6
2014-Jul-30 01:33N 45°44' W 122°46'6 5.8
2014-Jul-30 00:25N 45°38' W 122°42'2 2.6
2014-Jul-29 23:33N 45°39' W 122°45'1 0.9
2014-Jul-29 22:33N 45°38' W 122°44'1 1.1
2014-Jul-29 21:33N 45°38' W 122°42'2 1.6
2014-Jul-29 20:33N 45°39' W 122°45'0 0.0
2014-Jul-29 19:33N 45°39' W 122°45'2 1.7
2014-Jul-29 18:33N 45°38' W 122°47'5 5.1
2014-Jul-29 17:33N 45°34' W 122°44'0 0.0
2014-Jul-29 16:33N 45°34' W 122°44'0 0.0
2014-Jul-29 15:33N 45°34' W 122°44'1 0.5
2014-Jul-29 14:33N 45°33' W 122°43'2 2.2
2014-Jul-29 13:33N 45°32' W 122°41'3 2.9
2014-Jul-29 12:32N 45°34' W 122°44'1 1.3
2014-Jul-29 11:33N 45°35' W 122°45'4 3.8
2014-Jul-29 10:33N 45°39' W 122°45'1 0.7
2014-Jul-29 09:33N 45°39' W 122°45'3 3.1
2014-Jul-29 08:33N 45°36' W 122°47'1 1.0
2014-Jul-29 07:33N 45°37' W 122°47'2 2.5
2014-Jul-29 06:33N 45°39' W 122°45'0 0.0
2014-Jul-29 05:33N 45°39' W 122°45'0 0.0
2014-Jul-29 04:31N 45°39' W 122°45'0 0.0
2014-Jul-29 03:33N 45°39' W 122°45'0 0.0
2014-Jul-29 02:29N 45°39' W 122°45'0 0.0
2014-Jul-29 01:31N 45°39' W 122°45'0 0.0
2014-Jul-29 00:30N 45°39' W 122°45'0 0.0
2014-Jul-28 23:30N 45°39' W 122°45'1 1.3
2014-Jul-28 22:28N 45°38' W 122°47'1 0.9
2014-Jul-28 21:33N 45°39' W 122°46'6 2.3
2014-Jul-28 19:07N 45°34' W 122°44'0 0.0
2014-Jul-28 17:09N 45°34' W 122°44'0 0.0
2014-Jul-28 16:16N 45°34' W 122°44'5 7.5
2014-Jul-28 15:33N 45°39' W 122°46'3 3.0
2014-Jul-28 14:33N 45°38' W 122°42'2 2.2
2014-Jul-28 13:33N 45°39' W 122°45'0 0.2
2014-Jul-28 12:26N 45°39' W 122°45'0 0.5
2014-Jul-28 11:33N 45°39' W 122°45'0 0.0
2014-Jul-28 10:33N 45°39' W 122°45'0 0.0
2014-Jul-28 09:33N 45°39' W 122°45'0 0.0
2014-Jul-28 08:33N 45°39' W 122°45'0 0.0
2014-Jul-28 07:33N 45°39' W 122°45'1 1.2
2014-Jul-28 06:32N 45°39' W 122°46'1 0.9
2014-Jul-28 05:33N 45°39' W 122°45'0 0.0
2014-Jul-28 04:31N 45°39' W 122°45'1 0.6
2014-Jul-28 03:21N 45°39' W 122°45'0 0.2
2014-Jul-28 02:31N 45°39' W 122°45'10 9.9
2014-Jul-28 01:29N 45°49' W 122°48'1010.4
2014-Jul-28 00:33N 45°59' W 122°50'8 7.5
2014-Jul-27 23:31N 46°05' W 122°56'0 0.0
2014-Jul-27 21:27N 46°05' W 122°56'3 3.7
2014-Jul-27 20:33N 46°08' W 122°60'5 2.4
2014-Jul-27 18:33N 46°10' W 123°06'7 6.6
2014-Jul-27 17:32N 46°06' W 122°58'0 0.0
2014-Jul-27 16:33N 46°06' W 122°58'5 4.9
2014-Jul-27 15:33N 46°03' W 122°53'1313.2
2014-Jul-27 14:33N 45°50' W 122°47'1211.8
2014-Jul-27 13:32N 45°38' W 122°44'1 0.8
2014-Jul-27 12:28N 45°38' W 122°42'1 1.6
2014-Jul-27 11:33N 45°39' W 122°44'1 0.5
2014-Jul-27 10:28N 45°39' W 122°45'0 0.0
2014-Jul-27 09:10N 45°39' W 122°45'0 0.0
2014-Jul-27 08:32N 45°39' W 122°45'0 0.0
2014-Jul-27 07:32N 45°39' W 122°45'0 0.3
2014-Jul-27 06:33N 45°39' W 122°45'0 0.2
2014-Jul-27 05:33N 45°39' W 122°45'0 0.1
2014-Jul-27 04:33N 45°39' W 122°45'0 0.0
2014-Jul-27 03:33N 45°39' W 122°45'0 0.0
2014-Jul-27 02:32N 45°39' W 122°45'0 0.0
2014-Jul-27 01:28N 45°39' W 122°45'3 1.3
2014-Jul-26 23:22N 45°41' W 122°46'8 9.8
2014-Jul-26 22:33N 45°49' W 122°48'9 9.4
2014-Jul-26 21:32N 45°58' W 122°50'8 8.3
2014-Jul-26 20:33N 46°05' W 122°56'0 0.0
2014-Jul-26 19:25N 46°05' W 122°56'0 0.0
2014-Jul-26 18:24N 46°05' W 122°56'0 0.0
2014-Jul-26 17:30N 46°05' W 122°56'0 0.0
2014-Jul-26 16:28N 46°05' W 122°56'4 3.5
2014-Jul-26 15:26N 46°08' W 123°00'8 8.7
2014-Jul-26 14:29N 46°11' W 123°11'1 0.7
2014-Jul-26 13:29N 46°11' W 123°10'9 8.8
2014-Jul-26 12:31N 46°07' W 122°59'2 1.8
2014-Jul-26 11:22N 46°06' W 122°57'1 0.6
2014-Jul-26 10:33N 46°06' W 122°57'7 7.2
2014-Jul-26 09:32N 46°00' W 122°51'12 9.8
2014-Jul-26 08:19N 45°48' W 122°47'910.4
2014-Jul-26 07:29N 45°40' W 122°46'3 2.6
2014-Jul-26 06:30N 45°38' W 122°43'1 0.4
2014-Jul-26 05:14N 45°38' W 122°44'1 1.0
2014-Jul-26 04:31N 45°39' W 122°45'0 0.0
2014-Jul-26 03:31N 45°39' W 122°45'2 2.0
2014-Jul-26 02:33N 45°38' W 122°47'1 0.8
2014-Jul-26 01:19N 45°37' W 122°47'2 2.8
2014-Jul-26 00:32N 45°39' W 122°45'0 0.0
2014-Jul-25 23:33N 45°39' W 122°45'0 0.0
2014-Jul-25 22:29N 45°39' W 122°45'0 0.0
2014-Jul-25 20:23N 45°39' W 122°45'0 0.0
2014-Jul-25 19:32N 45°39' W 122°45'0 0.0
2014-Jul-25 18:31N 45°39' W 122°45'0 0.0
2014-Jul-25 15:10N 45°39' W 122°45'0 0.0
2014-Jul-25 14:19N 45°39' W 122°45'0 0.0
2014-Jul-25 13:26N 45°39' W 122°45'1 1.1
2014-Jul-25 12:33N 45°39' W 122°46'2 1.7
2014-Jul-25 11:16N 45°36' W 122°47'3 0.8
2014-Jul-25 08:15N 45°39' W 122°45'0 0.0
2014-Jul-25 07:30N 45°39' W 122°45'0 0.0
2014-Jul-25 06:26N 45°39' W 122°45'0 0.1
2014-Jul-25 03:31N 45°39' W 122°45'0 0.0
2014-Jul-25 02:32N 45°39' W 122°45'6 6.3
2014-Jul-25 01:33N 45°45' W 122°46'10 9.5
2014-Jul-25 00:33N 45°54' W 122°48'1010.0
2014-Jul-24 23:32N 46°04' W 122°53'3 2.6
2014-Jul-24 22:33N 46°05' W 122°56'2 1.7
2014-Jul-24 21:33N 46°07' W 122°58'2 0.7
2014-Jul-24 19:13N 46°05' W 122°56'4 6.2
2014-Jul-24 18:30N 46°02' W 122°53'0 0.1
2014-Jul-24 17:33N 46°02' W 122°53'0 0.0
2014-Jul-24 16:32N 46°02' W 122°53'0 0.0
2014-Jul-24 15:33N 46°02' W 122°53'0 0.0
2014-Jul-24 14:33N 46°02' W 122°53'0 0.4
2014-Jul-24 13:32N 46°02' W 122°52'1 1.2
2014-Jul-24 12:33N 46°03' W 122°53'0 0.1
2014-Jul-24 11:33N 46°03' W 122°53'7 6.9
2014-Jul-24 10:33N 45°56' W 122°48'1211.3
2014-Jul-24 09:30N 45°45' W 122°46'6 5.7
2014-Jul-24 08:29N 45°39' W 122°46'0 0.0
2014-Jul-24 07:32N 45°39' W 122°46'0 0.5
2014-Jul-24 06:33N 45°39' W 122°46'5 1.6
2014-Jul-24 03:26N 45°34' W 122°44'0 0.2
2014-Jul-24 01:07N 45°34' W 122°44'0 0.1
2014-Jul-23 23:33N 45°34' W 122°44'4 1.9
2014-Jul-23 21:32N 45°37' W 122°47'2 1.9
2014-Jul-23 20:30N 45°39' W 122°45'2 2.4
2014-Jul-23 19:33N 45°37' W 122°47'1 1.3
2014-Jul-23 18:33N 45°36' W 122°47'0 0.3
2014-Jul-23 17:32N 45°36' W 122°47'0 0.0
2014-Jul-23 16:33N 45°36' W 122°47'2 1.9
2014-Jul-23 15:16N 45°34' W 122°44'1 0.1
2014-Jul-23 10:33N 45°34' W 122°44'0 0.0
2014-Jul-23 04:11N 45°34' W 122°44'0 0.0
2014-Jul-23 03:30N 45°34' W 122°44'5 2.5
2014-Jul-23 01:27N 45°38' W 122°47'1 1.4
2014-Jul-23 00:31N 45°39' W 122°45'1 0.5
2014-Jul-22 23:24N 45°39' W 122°45'0 0.0
2014-Jul-22 22:30N 45°39' W 122°45'1 0.7
2014-Jul-22 21:32N 45°39' W 122°45'1 0.8
2014-Jul-22 20:29N 45°39' W 122°46'1 0.6
2014-Jul-22 19:24N 45°38' W 122°47'4 1.7
2014-Jul-22 17:07N 45°35' W 122°45'2 2.7
2014-Jul-22 16:30N 45°36' W 122°47'0 0.2
2014-Jul-22 15:32N 45°36' W 122°47'1 1.2
2014-Jul-22 14:31N 45°37' W 122°47'1 0.4
2014-Jul-22 12:31N 45°37' W 122°47'2 2.2
2014-Jul-22 11:27N 45°39' W 122°44'1 0.6
2014-Jul-22 10:32N 45°39' W 122°45'0 0.0
2014-Jul-22 09:32N 45°39' W 122°45'0 0.0
2014-Jul-22 08:32N 45°39' W 122°45'0 0.0
2014-Jul-22 07:14N 45°39' W 122°45'0 0.0
2014-Jul-22 04:26N 45°39' W 122°45'0 0.2
2014-Jul-22 03:17N 45°39' W 122°45'1 1.4
2014-Jul-22 02:30N 45°40' W 122°46'  
Track history (hours):
 
Tides and Currents Weather Stations Pressure Air Temp Water Temp Dewpoint Dewpoint Depression Visibility Wind Speed Wind Dir Waves Ship Positions

Sommer S

More information available from US FCC via Universal Licensing System and Coast Guard Vessel Documentation Center.

Last reported at 2014-Jul-31 23:33 UTC. Time now 2014-Jul-31 23:43 UTC.
Position N 46°07' W 122°58'.

Length 25 m.

Type: Tug. MMSI: 367530080.

Date/timePositionNaut miles runAvg speedWind from/ knotsBaromVisibWave heightAir tempDewpointWater temp
2014-Jul-31 23:33N 46°07' W 122°58'2 0.8
2014-Jul-31 21:28N 46°05' W 122°56'0 0.0
2014-Jul-31 20:31N 46°05' W 122°56'0 0.0
2014-Jul-31 19:31N 46°05' W 122°56'0 0.0
2014-Jul-31 18:30N 46°05' W 122°56'0 0.0
2014-Jul-31 17:33N 46°05' W 122°56'0 0.0
2014-Jul-31 16:33N 46°05' W 122°56'0 0.0
2014-Jul-31 15:33N 46°05' W 122°56'0 0.0
2014-Jul-31 14:18N 46°05' W 122°56'0 0.0
2014-Jul-31 13:32N 46°05' W 122°56'0 0.0
2014-Jul-31 12:33N 46°05' W 122°56'0 0.0
2014-Jul-31 11:33N 46°05' W 122°56'0 0.0
2014-Jul-31 10:33N 46°05' W 122°56'0 0.0
2014-Jul-31 09:33N 46°05' W 122°56'0 0.0
2014-Jul-31 08:33N 46°05' W 122°56'5 5.1
2014-Jul-31 07:33N 46°09' W 123°02'6 5.4
2014-Jul-31 06:28N 46°11' W 123°09'6 5.3
2014-Jul-31 05:24N 46°09' W 123°17'6 5.1
2014-Jul-31 04:08N 46°11' W 123°25'3 4.5
2014-Jul-31 03:33N 46°13' W 123°25'5 5.2
2014-Jul-31 02:33N 46°16' W 123°32'6 6.5
2014-Jul-31 01:33N 46°15' W 123°41'7 7.1
2014-Jul-31 00:33N 46°12' W 123°50'1 0.9
2014-Jul-30 23:33N 46°11' W 123°52'0 0.0
2014-Jul-30 22:33N 46°11' W 123°52'0 0.4
2014-Jul-30 21:33N 46°12' W 123°51'6 5.6
2014-Jul-30 20:33N 46°14' W 123°44'8 7.6
2014-Jul-30 19:33N 46°15' W 123°33'7 7.0
2014-Jul-30 18:33N 46°11' W 123°26'10 8.9
2014-Jul-30 17:23N 46°11' W 123°11'8 9.4
2014-Jul-30 16:33N 46°08' W 123°00'4 3.9
2014-Jul-30 15:32N 46°05' W 122°56'0 0.0
2014-Jul-30 14:33N 46°05' W 122°56'0 0.0
2014-Jul-30 13:33N 46°05' W 122°56'0 0.0
2014-Jul-30 12:33N 46°05' W 122°56'0 0.0
2014-Jul-30 11:32N 46°05' W 122°56'0 0.0
2014-Jul-30 10:33N 46°05' W 122°56'0 0.0
2014-Jul-30 09:33N 46°05' W 122°56'0 0.0
2014-Jul-30 08:33N 46°05' W 122°56'0 0.0
2014-Jul-30 07:33N 46°05' W 122°56'0 0.0
2014-Jul-30 06:31N 46°05' W 122°56'1 0.5
2014-Jul-30 05:33N 46°06' W 122°56'1 0.9
2014-Jul-30 04:33N 46°06' W 122°58'1 1.3
2014-Jul-30 03:33N 46°06' W 122°56'1111.5
2014-Jul-30 02:33N 45°56' W 122°48'1211.6
2014-Jul-30 01:33N 45°44' W 122°46'6 5.8
2014-Jul-30 00:25N 45°38' W 122°42'2 2.6
2014-Jul-29 23:33N 45°39' W 122°45'1 0.9
2014-Jul-29 22:33N 45°38' W 122°44'1 1.1
2014-Jul-29 21:33N 45°38' W 122°42'2 1.6
2014-Jul-29 20:33N 45°39' W 122°45'0 0.0
2014-Jul-29 19:33N 45°39' W 122°45'2 1.7
2014-Jul-29 18:33N 45°38' W 122°47'5 5.1
2014-Jul-29 17:33N 45°34' W 122°44'0 0.0
2014-Jul-29 16:33N 45°34' W 122°44'0 0.0
2014-Jul-29 15:33N 45°34' W 122°44'1 0.5
2014-Jul-29 14:33N 45°33' W 122°43'2 2.2
2014-Jul-29 13:33N 45°32' W 122°41'3 2.9
2014-Jul-29 12:32N 45°34' W 122°44'1 1.3
2014-Jul-29 11:33N 45°35' W 122°45'4 3.8
2014-Jul-29 10:33N 45°39' W 122°45'1 0.7
2014-Jul-29 09:33N 45°39' W 122°45'3 3.1
2014-Jul-29 08:33N 45°36' W 122°47'1 1.0
2014-Jul-29 07:33N 45°37' W 122°47'2 2.5
2014-Jul-29 06:33N 45°39' W 122°45'0 0.0
2014-Jul-29 05:33N 45°39' W 122°45'0 0.0
2014-Jul-29 04:31N 45°39' W 122°45'0 0.0
2014-Jul-29 03:33N 45°39' W 122°45'0 0.0
2014-Jul-29 02:29N 45°39' W 122°45'0 0.0
2014-Jul-29 01:31N 45°39' W 122°45'0 0.0
2014-Jul-29 00:30N 45°39' W 122°45'0 0.0
2014-Jul-28 23:30N 45°39' W 122°45'1 1.3
2014-Jul-28 22:28N 45°38' W 122°47'1 0.9
2014-Jul-28 21:33N 45°39' W 122°46'6 2.3
2014-Jul-28 19:07N 45°34' W 122°44'0 0.0
2014-Jul-28 17:09N 45°34' W 122°44'0 0.0
2014-Jul-28 16:16N 45°34' W 122°44'5 7.5
2014-Jul-28 15:33N 45°39' W 122°46'3 3.0
2014-Jul-28 14:33N 45°38' W 122°42'2 2.2
2014-Jul-28 13:33N 45°39' W 122°45'0 0.2
2014-Jul-28 12:26N 45°39' W 122°45'0 0.5
2014-Jul-28 11:33N 45°39' W 122°45'0 0.0
2014-Jul-28 10:33N 45°39' W 122°45'0 0.0
2014-Jul-28 09:33N 45°39' W 122°45'0 0.0
2014-Jul-28 08:33N 45°39' W 122°45'0 0.0
2014-Jul-28 07:33N 45°39' W 122°45'1 1.2
2014-Jul-28 06:32N 45°39' W 122°46'1 0.9
2014-Jul-28 05:33N 45°39' W 122°45'0 0.0
2014-Jul-28 04:31N 45°39' W 122°45'1 0.6
2014-Jul-28 03:21N 45°39' W 122°45'0 0.2
2014-Jul-28 02:31N 45°39' W 122°45'10 9.9
2014-Jul-28 01:29N 45°49' W 122°48'1010.4
2014-Jul-28 00:33N 45°59' W 122°50'8 7.5
2014-Jul-27 23:31N 46°05' W 122°56'0 0.0
2014-Jul-27 21:27N 46°05' W 122°56'3 3.7
2014-Jul-27 20:33N 46°08' W 122°60'5 2.4
2014-Jul-27 18:33N 46°10' W 123°06'7 6.6
2014-Jul-27 17:32N 46°06' W 122°58'0 0.0
2014-Jul-27 16:33N 46°06' W 122°58'5 4.9
2014-Jul-27 15:33N 46°03' W 122°53'1313.2
2014-Jul-27 14:33N 45°50' W 122°47'1211.8
2014-Jul-27 13:32N 45°38' W 122°44'1 0.8
2014-Jul-27 12:28N 45°38' W 122°42'1 1.6
2014-Jul-27 11:33N 45°39' W 122°44'1 0.5
2014-Jul-27 10:28N 45°39' W 122°45'0 0.0
2014-Jul-27 09:10N 45°39' W 122°45'0 0.0
2014-Jul-27 08:32N 45°39' W 122°45'0 0.0
2014-Jul-27 07:32N 45°39' W 122°45'0 0.3
2014-Jul-27 06:33N 45°39' W 122°45'0 0.2
2014-Jul-27 05:33N 45°39' W 122°45'0 0.1
2014-Jul-27 04:33N 45°39' W 122°45'0 0.0
2014-Jul-27 03:33N 45°39' W 122°45'0 0.0
2014-Jul-27 02:32N 45°39' W 122°45'0 0.0
2014-Jul-27 01:28N 45°39' W 122°45'3 1.3
2014-Jul-26 23:22N 45°41' W 122°46'8 9.8
2014-Jul-26 22:33N 45°49' W 122°48'9 9.4
2014-Jul-26 21:32N 45°58' W 122°50'8 8.3
2014-Jul-26 20:33N 46°05' W 122°56'0 0.0
2014-Jul-26 19:25N 46°05' W 122°56'0 0.0
2014-Jul-26 18:24N 46°05' W 122°56'0 0.0
2014-Jul-26 17:30N 46°05' W 122°56'0 0.0
2014-Jul-26 16:28N 46°05' W 122°56'4 3.5
2014-Jul-26 15:26N 46°08' W 123°00'8 8.7
2014-Jul-26 14:29N 46°11' W 123°11'1 0.7
2014-Jul-26 13:29N 46°11' W 123°10'9 8.8
2014-Jul-26 12:31N 46°07' W 122°59'2 1.8
2014-Jul-26 11:22N 46°06' W 122°57'1 0.6
2014-Jul-26 10:33N 46°06' W 122°57'7 7.2
2014-Jul-26 09:32N 46°00' W 122°51'12 9.8
2014-Jul-26 08:19N 45°48' W 122°47'910.4
2014-Jul-26 07:29N 45°40' W 122°46'3 2.6
2014-Jul-26 06:30N 45°38' W 122°43'1 0.4
2014-Jul-26 05:14N 45°38' W 122°44'1 1.0
2014-Jul-26 04:31N 45°39' W 122°45'0 0.0
2014-Jul-26 03:31N 45°39' W 122°45'2 2.0
2014-Jul-26 02:33N 45°38' W 122°47'1 0.8
2014-Jul-26 01:19N 45°37' W 122°47'2 2.8
2014-Jul-26 00:32N 45°39' W 122°45'0 0.0
2014-Jul-25 23:33N 45°39' W 122°45'0 0.0
2014-Jul-25 22:29N 45°39' W 122°45'0 0.0
2014-Jul-25 20:23N 45°39' W 122°45'0 0.0
2014-Jul-25 19:32N 45°39' W 122°45'0 0.0
2014-Jul-25 18:31N 45°39' W 122°45'0 0.0
2014-Jul-25 15:10N 45°39' W 122°45'0 0.0
2014-Jul-25 14:19N 45°39' W 122°45'0 0.0
2014-Jul-25 13:26N 45°39' W 122°45'1 1.1
2014-Jul-25 12:33N 45°39' W 122°46'2 1.7
2014-Jul-25 11:16N 45°36' W 122°47'3 0.8
2014-Jul-25 08:15N 45°39' W 122°45'0 0.0
2014-Jul-25 07:30N 45°39' W 122°45'0 0.0
2014-Jul-25 06:26N 45°39' W 122°45'0 0.1
2014-Jul-25 03:31N 45°39' W 122°45'0 0.0
2014-Jul-25 02:32N 45°39' W 122°45'6 6.3
2014-Jul-25 01:33N 45°45' W 122°46'10 9.5
2014-Jul-25 00:33N 45°54' W 122°48'1010.0
2014-Jul-24 23:32N 46°04' W 122°53'3 2.6
2014-Jul-24 22:33N 46°05' W 122°56'2 1.7
2014-Jul-24 21:33N 46°07' W 122°58'2 0.7
2014-Jul-24 19:13N 46°05' W 122°56'4 6.2
2014-Jul-24 18:30N 46°02' W 122°53'0 0.1
2014-Jul-24 17:33N 46°02' W 122°53'0 0.0
2014-Jul-24 16:32N 46°02' W 122°53'0 0.0
2014-Jul-24 15:33N 46°02' W 122°53'0 0.0
2014-Jul-24 14:33N 46°02' W 122°53'0 0.4
2014-Jul-24 13:32N 46°02' W 122°52'1 1.2
2014-Jul-24 12:33N 46°03' W 122°53'0 0.1
2014-Jul-24 11:33N 46°03' W 122°53'7 6.9
2014-Jul-24 10:33N 45°56' W 122°48'1211.3
2014-Jul-24 09:30N 45°45' W 122°46'6 5.7
2014-Jul-24 08:29N 45°39' W 122°46'0 0.0
2014-Jul-24 07:32N 45°39' W 122°46'0 0.5
2014-Jul-24 06:33N 45°39' W 122°46'5 1.6
2014-Jul-24 03:26N 45°34' W 122°44'0 0.2
2014-Jul-24 01:07N 45°34' W 122°44'0 0.1
2014-Jul-23 23:33N 45°34' W 122°44'4 1.9
2014-Jul-23 21:32N 45°37' W 122°47'2 1.9
2014-Jul-23 20:30N 45°39' W 122°45'2 2.4
2014-Jul-23 19:33N 45°37' W 122°47'1 1.3
2014-Jul-23 18:33N 45°36' W 122°47'0 0.3
2014-Jul-23 17:32N 45°36' W 122°47'0 0.0
2014-Jul-23 16:33N 45°36' W 122°47'2 1.9
2014-Jul-23 15:16N 45°34' W 122°44'1 0.1
2014-Jul-23 10:33N 45°34' W 122°44'0 0.0
2014-Jul-23 04:11N 45°34' W 122°44'0 0.0
2014-Jul-23 03:30N 45°34' W 122°44'5 2.5
2014-Jul-23 01:27N 45°38' W 122°47'1 1.4
2014-Jul-23 00:31N 45°39' W 122°45'1 0.5
2014-Jul-22 23:24N 45°39' W 122°45'0 0.0
2014-Jul-22 22:30N 45°39' W 122°45'1 0.7
2014-Jul-22 21:32N 45°39' W 122°45'1 0.8
2014-Jul-22 20:29N 45°39' W 122°46'1 0.6
2014-Jul-22 19:24N 45°38' W 122°47'4 1.7
2014-Jul-22 17:07N 45°35' W 122°45'2 2.7
2014-Jul-22 16:30N 45°36' W 122°47'0 0.2
2014-Jul-22 15:32N 45°36' W 122°47'1 1.2
2014-Jul-22 14:31N 45°37' W 122°47'1 0.4
2014-Jul-22 12:31N 45°37' W 122°47'2 2.2
2014-Jul-22 11:27N 45°39' W 122°44'1 0.6
2014-Jul-22 10:32N 45°39' W 122°45'0 0.0
2014-Jul-22 09:32N 45°39' W 122°45'0 0.0
2014-Jul-22 08:32N 45°39' W 122°45'0 0.0
2014-Jul-22 07:14N 45°39' W 122°45'0 0.0
2014-Jul-22 04:26N 45°39' W 122°45'0 0.2
2014-Jul-22 03:17N 45°39' W 122°45'1 1.4
2014-Jul-22 02:30N 45°40' W 122°46'  

Dump ship's entire track history